Port Angeles, WA

2:26 AM PDT on May 27, 2017 (GMT -0700)
Fairchild International | | Change Station

Elev 289 ft 48.12 °N, 123.50 °W | Updated 33 minutes ago

Clear
Clear
58 °F
Feels Like 58 °F
N
8
Wind Variable Wind from West

Today
High -- | Low -- °F
--% Chance of Precip.
Yesterday
High -- | Low -- °F
Precip. -- in
Pressure 30.03 in
Visibility 10.0 miles
Clouds Clear
Dew Point 48 °F
Humidity 70%
Rainfall 0.00 in
Snow Depth Not available.
5:21 AM 9:01 PM
Waxing Crescent, 4% visible
METAR KCLM 270853Z AUTO 28007KT 10SM CLR 14/09 A3003 RMK AO2 SLP168 T01440089 53003
Pressure 30.03 in
Visibility 10.0 miles
Clouds Clear
Dew Point 48 °F
Humidity 70%
Rainfall 0.00 in
Snow Depth Not available.
5:21 AM 9:01 PM
Waxing Crescent, 4% visible
METAR KCLM 270853Z AUTO 28007KT 10SM CLR 14/09 A3003 RMK AO2 SLP168 T01440089 53003

Get Severe Weather Alerts

Thanks for signing up!

Be on the lookout for a verification email in your inbox.

You'll start receiving the daily forecast at 6 AM.

×

10-Day Weather Forecast

Almanac

Astronomy

May. 27, 2017 Rise Set
Actual Time
Civil Twilight
Nautical Twilight
Astronomical Twilight
Moon
Length of Visible Light
Length of Day
Tomorrow will be .
, % of the Moon is Illuminated

Today's Extremes

State Highs State Lows

Community

WunderPhotos

Category 6

Welcome to Category 6. This is the collective home for Weather Underground's featured writeups by Dr. Jeff Masters (right), Bob Henson (left), Chris Burt, and other regular contributors.

Nearby

Air Quality

  Air Quality AQ Index Pollutant
Not available.

Snow Depth

Station Depth Elevation

Earthquake Activity

City Distance Mag. Time & Date
Minimum magnitude displayed is 2.5.

Coastal Water Temperatures

Place Temperature

Stations

Nearby Weather Stations

Station Location Temp. Windchill Dew Point Humidity Wind Precip. Elev Updated Type
                   

Watches & Warnings

There are currently no watches in effect.